Terminal Aerodrome Forecast
Issued by NWS Grand Forks, ND

Home | Current Version | Previous Version | Text Only | Print | Product List | Glossary Off
Versions: 1 2 3 4 5 6 7 8 9 10 11 12 13 14 15

000
FTUS43 KFGF 220500
TAFGFK
TAF
KGFK 220524Z 2206/2306 25010KT P6SM BKN090 BKN200
     FM221200 VRB03KT P6SM BKN120
     FM221800 16008KT P6SM BKN250
     FM230400 16008KT P6SM BKN015=

USA.gov is the U.S. government's official web portal to all federal, state and local government web resources and services.